Wednesday, November 21, 2018, 10:17 AM GMT
Back to Local

CXHF, High Falls , Que.

Location: , , Canada Lat: 45.833
Local Time: 10:17 AM GMT (10:17 GMT) Lon: -75.65
Time Zone: GMT Elev: 623 ft

Show me the last for .
Show Coded

Time T Td Feel RH Dir Speed Gust Alt SLP Vis Weather Sky Remarks
2018-11-21 10:00 16 15 - 96 - - - - - 0 1-hr Precip Total: 0.06"
2018-11-21 09:00 15 12 - 87 - - - - - 0 None
2018-11-21 08:00 15 12 - 86 - - - - - 0 None
2018-11-21 07:00 15 11 - 85 - - - - - 0 None
2018-11-21 06:00 15 11 - 83 - - - - - 0 None
2018-11-21 05:00 16 11 - 82 - - - - - 0 None
2018-11-21 04:00 16 12 - 82 - - - - - 0 None
2018-11-21 03:00 15 12 - 86 - - - - - 0 None
2018-11-21 02:00 17 13 - 85 - - - - - 0 None
2018-11-21 01:00 17 13 - 83 - - - - - 0 None
2018-11-21 00:00 17 13 - 83 - - - - - 0 None
2018-11-20 23:00 18 15 - 86 - - - - - 0 None
2018-11-20 21:00 20 16 - 85 - - - - - 0 None
2018-11-20 20:00 20 19 - 91 - - - - - 0 None
2018-11-20 18:00 20 19 - 91 - - - - - 0 None
2018-11-20 17:00 20 15 - 83 - - - - - 0 None
2018-11-20 16:00 19 15 - 84 - - - - - 0 1-hr Precip Total: 0.04"
2018-11-20 15:00 19 15 - 86 - - - - - 0 None
2018-11-20 14:00 17 14 - 86 - - - - - 0 None
2018-11-20 13:00 17 14 - 86 - - - - - 0 1-hr Precip Total: 0.04"
2018-11-20 12:00 18 14 - 86 - - - - - 0 None
2018-11-20 11:00 18 15 - 87 - - - - - 0 None

Support USWX by starting your Amazon purchase here.